createdAt,value
2015-02-23T12:49:07.309Z,98500
2015-02-23T12:49:19.238Z,98489
2015-02-23T12:49:31.178Z,98489
2015-02-23T12:49:43.234Z,98486
2015-02-23T12:50:01.826Z,98492
2015-02-23T12:50:13.785Z,98483
2015-02-23T12:50:25.743Z,98497
2015-02-23T12:50:37.711Z,98489
2015-02-23T12:50:49.675Z,98495
2015-02-23T12:51:01.613Z,98495
2015-02-23T12:51:13.656Z,98492
2015-02-23T12:51:25.806Z,98503
2015-02-23T12:51:37.734Z,98492
2015-02-23T12:51:49.853Z,98494
2015-02-23T12:52:01.927Z,98491
2015-02-23T12:52:13.919Z,98497
2015-02-23T12:52:32.548Z,98500
2015-02-23T12:52:44.603Z,98500
2015-02-23T12:52:56.644Z,98486
2015-02-23T12:53:08.703Z,98500
2015-02-23T12:53:27.463Z,98489
2015-02-23T12:53:52.834Z,98512
2015-02-23T12:54:04.762Z,98500
2015-02-23T12:54:16.731Z,98494
2015-02-23T12:54:28.760Z,98500
2015-02-23T12:54:40.807Z,98503
2015-02-23T12:54:59.462Z,98500
2015-02-23T12:55:11.420Z,98503
2015-02-23T12:55:30.124Z,98500
2015-02-23T12:55:42.142Z,98494
2015-02-23T12:55:54.149Z,98500
2015-02-23T12:56:12.822Z,98491
2015-02-23T12:56:24.942Z,98491
2015-02-23T12:56:36.945Z,98491
2015-02-23T12:56:49.002Z,98500
2015-02-23T12:57:01.056Z,98503
2015-02-23T12:57:13.091Z,98497
2015-02-23T12:57:25.163Z,98497
2015-02-23T12:57:43.882Z,98491
2015-02-23T12:57:55.888Z,98491
2015-02-23T12:58:08.010Z,98494
2015-02-23T12:58:20.041Z,98491
2015-02-23T12:58:32.132Z,98491
2015-02-23T12:58:44.164Z,98497
2015-02-23T12:58:56.218Z,98491
2015-02-23T12:59:14.874Z,98491
2015-02-23T12:59:26.877Z,98497
2015-02-23T12:59:38.909Z,98500
2015-02-23T12:59:51.128Z,98494
2015-02-23T13:00:09.925Z,98497
2015-02-23T13:00:22.018Z,98494
2015-02-23T13:00:34.032Z,98485
2015-02-23T13:00:52.683Z,98491
2015-02-23T13:01:04.660Z,98496
2015-02-23T13:01:23.414Z,98499
2015-02-23T13:01:42.267Z,98493
2015-02-23T13:02:00.868Z,98487
2015-02-23T13:02:12.868Z,98487
2015-02-23T13:02:24.891Z,98502
2015-02-23T13:02:36.889Z,98487
2015-02-23T13:02:49.054Z,98496
2015-02-23T13:03:01.188Z,98490
2015-02-23T13:03:13.276Z,98490
2015-02-23T13:03:32.044Z,98490
2015-02-23T13:03:44.187Z,98493
2015-02-23T13:04:02.954Z,98487
2015-02-23T13:04:15.039Z,98493
2015-02-23T13:04:33.679Z,98493
2015-02-23T13:04:45.712Z,98484
2015-02-23T13:04:57.720Z,98492
2015-02-23T13:05:09.918Z,98492
2015-02-23T13:05:22.008Z,98489
2015-02-23T13:05:40.745Z,98476
2015-02-23T13:05:59.438Z,98498
2015-02-23T13:06:11.486Z,98492
2015-02-23T13:06:30.186Z,98497
2015-02-23T13:06:42.153Z,98480
2015-02-23T13:06:54.344Z,98491
2015-02-23T13:07:13.038Z,98497
2015-02-23T13:07:31.665Z,98503
2015-02-23T13:07:43.692Z,98486
2015-02-23T13:07:55.757Z,98495
2015-02-23T13:08:07.813Z,98489
2015-02-23T13:08:19.841Z,98492
2015-02-23T13:08:32.087Z,98486
2015-02-23T13:08:44.128Z,98498
2015-02-23T13:08:56.196Z,98495
2015-02-23T13:09:08.298Z,98501
2015-02-23T13:09:20.375Z,98489
2015-02-23T13:09:32.691Z,98492
2015-02-23T13:09:51.455Z,98504
2015-02-23T13:10:03.581Z,98492
2015-02-23T13:10:15.606Z,98498
2015-02-23T13:10:27.644Z,98492
2015-02-23T13:10:39.714Z,98504
2015-02-23T13:10:58.499Z,98501
2015-02-23T13:11:10.771Z,98501
2015-02-23T13:11:22.809Z,98498
2015-02-23T13:11:34.839Z,98501
2015-02-23T13:11:46.874Z,98484
2015-02-23T13:11:58.837Z,98501
2015-02-23T13:12:17.487Z,98498
2015-02-23T13:12:36.132Z,98504
2015-02-23T13:12:48.196Z,98495
2015-02-23T13:13:00.377Z,98492
2015-02-23T13:13:12.458Z,98504
2015-02-23T13:13:24.454Z,98498
2015-02-23T13:13:36.502Z,98501
2015-02-23T13:13:55.191Z,98498
2015-02-23T13:14:07.162Z,98498
2015-02-23T13:14:19.316Z,98498
2015-02-23T13:14:31.341Z,98489
2015-02-23T13:14:43.390Z,98498
2015-02-23T13:14:55.380Z,98489
2015-02-23T13:15:07.427Z,98487
2015-02-23T13:15:19.430Z,98498
2015-02-23T13:15:44.699Z,98495
2015-02-23T13:15:56.767Z,98498
2015-02-23T13:16:15.425Z,98489
2015-02-23T13:16:27.529Z,98507
2015-02-23T13:16:39.582Z,98498
2015-02-23T13:16:58.184Z,98504
2015-02-23T13:17:16.796Z,98504
2015-02-23T13:17:28.800Z,98501
2015-02-23T13:17:47.450Z,98501
2015-02-23T13:17:59.550Z,98513
2015-02-23T13:18:11.655Z,98501
2015-02-23T13:18:23.802Z,98507
2015-02-23T13:18:35.847Z,98493
2015-02-23T13:18:47.832Z,98498
2015-02-23T13:19:06.521Z,98496
2015-02-23T13:19:18.765Z,98498
2015-02-23T13:19:37.455Z,98496
2015-02-23T13:19:49.485Z,98498
2015-02-23T13:20:01.583Z,98498
2015-02-23T13:20:20.281Z,98501
2015-02-23T13:20:39.042Z,98501
2015-02-23T13:20:51.233Z,98495
2015-02-23T13:21:03.230Z,98495
2015-02-23T13:21:21.843Z,98490
2015-02-23T13:21:34.070Z,98492
2015-02-23T13:21:52.776Z,98495
2015-02-23T13:22:04.888Z,98498
2015-02-23T13:22:23.578Z,98504
2015-02-23T13:22:35.629Z,98498
2015-02-23T13:22:47.592Z,98495
2015-02-23T13:22:59.682Z,98495
2015-02-23T13:23:11.820Z,98498
2015-02-23T13:23:23.836Z,98489
2015-02-23T13:23:35.825Z,98495
2015-02-23T13:23:47.918Z,98498
2015-02-23T13:23:59.949Z,98481
2015-02-23T13:24:11.937Z,98492
2015-02-23T13:24:24.018Z,98495
2015-02-23T13:24:36.067Z,98495
2015-02-23T13:24:48.334Z,98486
2015-02-23T13:25:00.404Z,98492
2015-02-23T13:25:12.509Z,98495
2015-02-23T13:25:24.590Z,98492
2015-02-23T13:25:36.592Z,98489
2015-02-23T13:25:48.604Z,98498
2015-02-23T13:26:00.772Z,98495
2015-02-23T13:26:12.886Z,98501
2015-02-23T13:26:31.506Z,98495
2015-02-23T13:26:43.525Z,98498
2015-02-23T13:26:55.494Z,98489
2015-02-23T13:27:07.535Z,98483
2015-02-23T13:27:19.613Z,98486
2015-02-23T13:27:31.644Z,98483
2015-02-23T13:27:43.652Z,98483
2015-02-23T13:28:02.357Z,98500
2015-02-23T13:28:14.494Z,98500
2015-02-23T13:28:26.484Z,98489
2015-02-23T13:28:45.161Z,98483
2015-02-23T13:28:57.128Z,98483
2015-02-23T13:29:09.236Z,98489
2015-02-23T13:29:21.336Z,98489
2015-02-23T13:29:33.335Z,98494
2015-02-23T13:29:45.431Z,98494
2015-02-23T13:29:57.437Z,98494
2015-02-23T13:30:09.464Z,98500
2015-02-23T13:30:21.544Z,98494
2015-02-23T13:30:33.612Z,98497
2015-02-23T13:30:45.662Z,98500
2015-02-23T13:30:57.700Z,98502
2015-02-23T13:31:09.727Z,98505
2015-02-23T13:31:21.798Z,98505
2015-02-23T13:31:33.825Z,98505
2015-02-23T13:31:46.107Z,98505
2015-02-23T13:31:58.258Z,98505
2015-02-23T13:32:10.313Z,98505
2015-02-23T13:32:35.660Z,98505
2015-02-23T13:32:47.715Z,98508
2015-02-23T13:32:59.702Z,98519
2015-02-23T13:33:11.734Z,98508
2015-02-23T13:33:23.866Z,98508
2015-02-23T13:33:42.668Z,98502
2015-02-23T13:33:54.803Z,98502
2015-02-23T13:34:06.839Z,98502
2015-02-23T13:34:18.901Z,98502
2015-02-23T13:34:30.994Z,98496
2015-02-23T13:34:43.016Z,98513
2015-02-23T13:34:55.155Z,98490
2015-02-23T13:35:07.314Z,98499
2015-02-23T13:35:19.306Z,98499
2015-02-23T13:35:31.327Z,98504
2015-02-23T13:35:43.486Z,98504
2015-02-23T13:35:55.633Z,98504
2015-02-23T13:36:07.795Z,98499
2015-02-23T13:36:19.889Z,98502
2015-02-23T13:36:31.951Z,98505
2015-02-23T13:36:44.079Z,98496
2015-02-23T13:36:56.148Z,98508
2015-02-23T13:37:14.774Z,98511
2015-02-23T13:37:26.929Z,98491
2015-02-23T13:37:39.029Z,98493
2015-02-23T13:37:51.124Z,98496
2015-02-23T13:38:03.261Z,98508
2015-02-23T13:38:15.450Z,98502
2015-02-23T13:38:27.550Z,98493
2015-02-23T13:38:39.592Z,98507
2015-02-23T13:38:51.631Z,98495
2015-02-23T13:39:03.612Z,98498
2015-02-23T13:39:22.323Z,98498
2015-02-23T13:39:41.091Z,98485
2015-02-23T13:39:53.113Z,98504
2015-02-23T13:40:05.132Z,98495
2015-02-23T13:40:17.184Z,98513
2015-02-23T13:40:29.222Z,98498
2015-02-23T13:40:41.271Z,98504
2015-02-23T13:40:53.328Z,98507
2015-02-23T13:41:05.441Z,98499
2015-02-23T13:41:17.582Z,98496
2015-02-23T13:41:29.642Z,98505
2015-02-23T13:41:41.772Z,98514
2015-02-23T13:41:53.752Z,98511
2015-02-23T13:42:12.484Z,98511
2015-02-23T13:42:31.238Z,98511
2015-02-23T13:42:43.387Z,98502
2015-02-23T13:42:55.441Z,98511
2015-02-23T13:43:07.503Z,98523
2015-02-23T13:43:19.568Z,98508
2015-02-23T13:43:31.545Z,98517
2015-02-23T13:43:43.612Z,98514
2015-02-23T13:43:55.591Z,98508
2015-02-23T13:44:07.593Z,98505
2015-02-23T13:44:19.747Z,98503
2015-02-23T13:44:31.805Z,98503
2015-02-23T13:44:50.465Z,98506
2015-02-23T13:45:02.966Z,98503
2015-02-23T13:45:14.982Z,98509
2015-02-23T13:45:26.979Z,98515
2015-02-23T13:45:45.721Z,98509
2015-02-23T13:45:57.855Z,98518
2015-02-23T13:46:09.959Z,98501
2015-02-23T13:46:21.973Z,98506
2015-02-23T13:46:40.586Z,98512
2015-02-23T13:46:52.559Z,98498
2015-02-23T13:47:04.661Z,98507
2015-02-23T13:47:16.728Z,98498
2015-02-23T13:47:28.909Z,98504
2015-02-23T13:47:47.515Z,98498
2015-02-23T13:47:59.541Z,98504
2015-02-23T13:48:11.648Z,98495
2015-02-23T13:48:23.817Z,98504
2015-02-23T13:48:35.959Z,98504
2015-02-23T13:48:48.177Z,98499
2015-02-23T13:49:00.226Z,98504
2015-02-23T13:49:12.256Z,98487
2015-02-23T13:49:24.428Z,98504
2015-02-23T13:49:36.529Z,98504
2015-02-23T13:49:48.599Z,98502
2015-02-23T13:50:00.625Z,98502
2015-02-23T13:50:12.788Z,98502
2015-02-23T13:50:24.832Z,98505
2015-02-23T13:50:36.908Z,98508
2015-02-23T13:50:48.996Z,98502
2015-02-23T13:51:01.181Z,98502
2015-02-23T13:51:13.213Z,98502
2015-02-23T13:51:25.314Z,98502
2015-02-23T13:51:37.306Z,98505
2015-02-23T13:51:49.424Z,98502
2015-02-23T13:52:01.509Z,98505
2015-02-23T13:52:13.451Z,98491
2015-02-23T13:52:32.122Z,98502
2015-02-23T13:52:44.276Z,98494
2015-02-23T13:52:56.349Z,98505
2015-02-23T13:53:21.714Z,98500
2015-02-23T13:53:33.793Z,98500
2015-02-23T13:53:52.426Z,98500
2015-02-23T13:54:11.080Z,98503
2015-02-23T13:54:23.123Z,98503
2015-02-23T13:54:35.340Z,98500
2015-02-23T13:54:53.949Z,98503
2015-02-23T13:55:05.896Z,98500
2015-02-23T13:55:18.050Z,98503
2015-02-23T13:55:30.213Z,98506
2015-02-23T13:55:42.285Z,98500
2015-02-23T13:55:54.361Z,98509
2015-02-23T13:56:13.082Z,98512
2015-02-23T13:56:31.700Z,98506
2015-02-23T13:56:43.816Z,98515
2015-02-23T13:56:55.995Z,98500
2015-02-23T13:57:08.686Z,98515
2015-02-23T13:57:20.680Z,98515
2015-02-23T13:57:39.412Z,98503
2015-02-23T13:58:04.787Z,98512
2015-02-23T13:58:16.983Z,98509
2015-02-23T13:58:29.029Z,98495
2015-02-23T13:58:47.754Z,98498
2015-02-23T13:58:59.739Z,98506
2015-02-23T13:59:18.369Z,98498
2015-02-23T13:59:30.516Z,98495
2015-02-23T13:59:42.697Z,98506
2015-02-23T13:59:54.807Z,98503
2015-02-23T14:00:06.948Z,98506
2015-02-23T14:00:19.005Z,98501
2015-02-23T14:00:31.171Z,98498
2015-02-23T14:00:43.302Z,98501
2015-02-23T14:00:55.335Z,98498
2015-02-23T14:01:07.396Z,98501
2015-02-23T14:01:26.068Z,98506
2015-02-23T14:01:38.123Z,98498
2015-02-23T14:01:50.232Z,98495
2015-02-23T14:02:02.249Z,98492
2015-02-23T14:02:14.275Z,98501
2015-02-23T14:02:32.918Z,98498
2015-02-23T14:02:44.964Z,98501
2015-02-23T14:02:57.011Z,98503
2015-02-23T14:03:09.182Z,98512
2015-02-23T14:03:21.181Z,98501
2015-02-23T14:03:33.125Z,98501
2015-02-23T14:03:45.227Z,98498
2015-02-23T14:03:57.248Z,98509
2015-02-23T14:04:15.865Z,98501
2015-02-23T14:04:27.888Z,98503
2015-02-23T14:04:39.895Z,98495
2015-02-23T14:04:51.928Z,98501
2015-02-23T14:05:04.014Z,98498
2015-02-23T14:05:22.706Z,98509
2015-02-23T14:05:34.770Z,98504
2015-02-23T14:05:46.853Z,98504
2015-02-23T14:05:58.954Z,98504
2015-02-23T14:06:11.111Z,98501
2015-02-23T14:06:23.298Z,98512
2015-02-23T14:06:35.367Z,98501
2015-02-23T14:06:50.376Z,98510
2015-02-23T14:07:02.441Z,98515
2015-02-23T14:07:14.644Z,98492
2015-02-23T14:07:26.842Z,98498
2015-02-23T14:07:38.869Z,98504
2015-02-23T14:07:51.006Z,98507
2015-02-23T14:08:03.017Z,98510
2015-02-23T14:08:21.673Z,98507
2015-02-23T14:08:33.704Z,98501
2015-02-23T14:08:45.786Z,98510
2015-02-23T14:09:04.452Z,98507
2015-02-23T14:09:16.492Z,98510
2015-02-23T14:09:28.540Z,98507
2015-02-23T14:09:40.628Z,98507
2015-02-23T14:09:52.761Z,98504
2015-02-23T14:10:04.848Z,98512
2015-02-23T14:10:16.935Z,98504
2015-02-23T14:10:28.954Z,98506
2015-02-23T14:10:40.967Z,98509
2015-02-23T14:10:52.980Z,98498
2015-02-23T14:11:11.662Z,98509
2015-02-23T14:11:23.661Z,98504
2015-02-23T14:11:35.672Z,98495
2015-02-23T14:11:47.837Z,98512
2015-02-23T14:11:59.963Z,98504
2015-02-23T14:12:12.081Z,98512
2015-02-23T14:12:24.208Z,98509
2015-02-23T14:12:36.374Z,98509
2015-02-23T14:12:48.474Z,98503
2015-02-23T14:13:07.135Z,98489
2015-02-23T14:13:19.181Z,98503
2015-02-23T14:13:37.851Z,98503
2015-02-23T14:13:49.922Z,98506
2015-02-23T14:14:02.185Z,98503
2015-02-23T14:14:27.550Z,98503
2015-02-23T14:14:39.564Z,98506
2015-02-23T14:14:51.612Z,98503
2015-02-23T14:15:03.749Z,98506
2015-02-23T14:15:15.833Z,98506
2015-02-23T14:15:27.925Z,98509
2015-02-23T14:15:39.952Z,98509
2015-02-23T14:15:58.682Z,98518
2015-02-23T14:16:10.755Z,98503
2015-02-23T14:16:22.914Z,98506
2015-02-23T14:16:35.060Z,98515
2015-02-23T14:16:47.159Z,98515
2015-02-23T14:16:59.147Z,98495
2015-02-23T14:17:17.806Z,98515
2015-02-23T14:17:36.419Z,98515
2015-02-23T14:17:48.442Z,98515
2015-02-23T14:18:00.450Z,98512
2015-02-23T14:18:19.164Z,98513
2015-02-23T14:18:31.238Z,98501
2015-02-23T14:18:43.218Z,98510
2015-02-23T14:18:55.242Z,98516
2015-02-23T14:19:07.271Z,98507
2015-02-23T14:19:19.341Z,98504
2015-02-23T14:19:31.325Z,98507
2015-02-23T14:19:43.532Z,98521
2015-02-23T14:19:55.590Z,98510
2015-02-23T14:20:07.651Z,98510
2015-02-23T14:20:19.647Z,98513
2015-02-23T14:20:31.680Z,98516
2015-02-23T14:20:50.384Z,98510
2015-02-23T14:21:02.573Z,98519
2015-02-23T14:21:14.695Z,98513
2015-02-23T14:21:26.724Z,98516
2015-02-23T14:21:38.817Z,98522
2015-02-23T14:22:04.129Z,98525
2015-02-23T14:22:16.339Z,98525
2015-02-23T14:22:28.572Z,98525
2015-02-23T14:22:40.630Z,98513
2015-02-23T14:22:52.693Z,98513
2015-02-23T14:23:04.720Z,98525
2015-02-23T14:23:16.761Z,98527
2015-02-23T14:23:28.757Z,98522
2015-02-23T14:23:40.768Z,98522
2015-02-23T14:23:52.835Z,98519
2015-02-23T14:24:11.440Z,98525
2015-02-23T14:24:23.544Z,98522
2015-02-23T14:24:35.680Z,98522
2015-02-23T14:24:54.359Z,98522
2015-02-23T14:25:06.412Z,98516
2015-02-23T14:25:18.482Z,98516
2015-02-23T14:25:30.494Z,98525
2015-02-23T14:25:55.880Z,98531
2015-02-23T14:26:08.019Z,98516
2015-02-23T14:26:20.183Z,98513
2015-02-23T14:26:38.833Z,98516
2015-02-23T14:26:50.856Z,98513
2015-02-23T14:27:09.544Z,98528
2015-02-23T14:27:21.586Z,98528
2015-02-23T14:27:33.621Z,98522
2015-02-23T14:27:52.337Z,98536
2015-02-23T14:28:04.469Z,98522
2015-02-23T14:28:16.476Z,98525
2015-02-23T14:28:35.120Z,98528
2015-02-23T14:28:47.097Z,98519
2015-02-23T14:28:59.216Z,98516
2015-02-23T14:29:11.343Z,98525
2015-02-23T14:29:23.510Z,98519
2015-02-23T14:29:35.656Z,98525
2015-02-23T14:29:47.840Z,98522
2015-02-23T14:29:59.936Z,98528
2015-02-23T14:30:12.008Z,98519
2015-02-23T14:31:20.318Z,98522
2015-02-23T14:31:32.414Z,98519
2015-02-23T14:31:44.440Z,98514
2015-02-23T14:32:03.112Z,98522
2015-02-23T14:32:21.700Z,98522
2015-02-23T14:32:40.305Z,98522
2015-02-23T14:32:52.362Z,98525
2015-02-23T14:33:04.336Z,98522
2015-02-23T14:33:16.355Z,98525
2015-02-23T14:33:28.427Z,98511
2015-02-23T14:33:40.405Z,98525
2015-02-23T14:33:52.417Z,98528
2015-02-23T14:34:11.045Z,98528
2015-02-23T14:34:22.999Z,98522
2015-02-23T14:34:35.030Z,98528
2015-02-23T14:34:47.142Z,98531
2015-02-23T14:35:05.804Z,98536
2015-02-23T14:35:17.807Z,98539
2015-02-23T14:35:29.818Z,98523
2015-02-23T14:35:41.829Z,98528
2015-02-23T14:35:53.875Z,98536
2015-02-23T14:36:12.537Z,98528
2015-02-23T14:36:24.555Z,98536
2015-02-23T14:36:43.154Z,98531
2015-02-23T14:36:55.162Z,98539
2015-02-23T14:37:07.641Z,98525
2015-02-23T14:37:19.691Z,98536
2015-02-23T14:37:31.737Z,98528
2015-02-23T14:37:43.761Z,98539
2015-02-23T14:37:55.801Z,98525
2015-02-23T14:38:14.398Z,98528
2015-02-23T14:38:26.410Z,98531
2015-02-23T14:38:38.439Z,98526
2015-02-23T14:38:50.470Z,98526
2015-02-23T14:39:02.533Z,98523
2015-02-23T14:39:14.538Z,98520
2015-02-23T14:39:26.578Z,98514
2015-02-23T14:39:38.564Z,98526
2015-02-23T14:39:50.608Z,98520
2015-02-23T14:40:02.664Z,98514
2015-02-23T14:40:14.704Z,98523
2015-02-23T14:40:26.753Z,98523
2015-02-23T14:40:38.811Z,98526
2015-02-23T14:40:57.428Z,98523
2015-02-23T14:41:16.063Z,98517
2015-02-23T14:41:28.109Z,98526
2015-02-23T14:41:40.168Z,98520
2015-02-23T14:41:52.182Z,98526
2015-02-23T14:42:04.215Z,98517
2015-02-23T14:42:16.218Z,98517
2015-02-23T14:42:28.264Z,98520
2015-02-23T14:42:40.307Z,98511
2015-02-23T14:42:52.356Z,98520
2015-02-23T14:43:04.366Z,98526
2015-02-23T14:43:23.019Z,98523
2015-02-23T14:43:35.079Z,98506
2015-02-23T14:44:00.315Z,98523
2015-02-23T14:44:12.363Z,98514
2015-02-23T14:44:31.012Z,98511
2015-02-23T14:44:43.050Z,98514
2015-02-23T14:44:55.121Z,98514
2015-02-23T14:45:07.166Z,98517
2015-02-23T14:45:19.207Z,98517
2015-02-23T14:45:31.261Z,98514
2015-02-23T14:45:43.237Z,98520
2015-02-23T14:45:55.233Z,98514
2015-02-23T14:46:07.196Z,98520
2015-02-23T14:46:32.429Z,98517
2015-02-23T14:46:44.446Z,98511
2015-02-23T14:46:56.439Z,98503
2015-02-23T14:47:08.423Z,98517
2015-02-23T14:47:20.426Z,98514
2015-02-23T14:47:32.403Z,98509
2015-02-23T14:47:44.437Z,98523
2015-02-23T14:47:56.511Z,98517
2015-02-23T14:48:08.520Z,98509
2015-02-23T14:48:20.572Z,98520
2015-02-23T14:48:39.238Z,98523
2015-02-23T14:48:51.261Z,98517
2015-02-23T14:49:03.267Z,98512
2015-02-23T14:49:15.354Z,98514
2015-02-23T14:49:34.034Z,98517
2015-02-23T14:49:52.690Z,98509
2015-02-23T14:50:04.734Z,98509
2015-02-23T14:50:16.773Z,98515
2015-02-23T14:50:35.415Z,98517
2015-02-23T14:51:53.032Z,98515
2015-02-23T14:52:05.083Z,98523
2015-02-23T14:52:17.109Z,98517
2015-02-23T14:52:29.121Z,98506
2015-02-23T14:52:41.155Z,98520
2015-02-23T14:52:53.169Z,98520
2015-02-23T14:53:05.220Z,98512
2015-02-23T14:53:17.309Z,98517
2015-02-23T14:53:29.282Z,98520
2015-02-23T14:53:41.343Z,98512
2015-02-23T14:53:53.360Z,98515
2015-02-23T14:54:18.596Z,98517
2015-02-23T14:54:30.581Z,98518
2015-02-23T14:54:42.603Z,98512
2015-02-23T14:55:01.202Z,98518
2015-02-23T14:55:13.208Z,98517
2015-02-23T14:55:25.216Z,98509
2015-02-23T14:55:37.241Z,98518
2015-02-23T14:55:49.223Z,98512
2015-02-23T14:56:01.292Z,98515
2015-02-23T14:56:13.290Z,98523
2015-02-23T14:56:25.262Z,98523
2015-02-23T14:56:37.350Z,98515
2015-02-23T14:56:49.441Z,98515
2015-02-23T14:57:08.152Z,98523
2015-02-23T14:57:20.278Z,98523
2015-02-23T14:57:32.366Z,98520
2015-02-23T14:57:50.991Z,98523
2015-02-23T14:58:03.058Z,98526
2015-02-23T14:58:15.048Z,98520
2015-02-23T14:58:27.108Z,98523
2015-02-23T14:58:39.221Z,98534
2015-02-23T14:58:51.291Z,98526
2015-02-23T14:59:03.277Z,98523
2015-02-23T14:59:15.309Z,98529
2015-02-23T14:59:27.327Z,98526
2015-02-23T14:59:39.300Z,98517
2015-02-23T14:59:51.345Z,98520
2015-02-23T15:00:03.419Z,98536
2015-02-23T15:00:22.080Z,98528
2015-02-23T15:00:34.108Z,98525
2015-02-23T15:00:46.083Z,98528
2015-02-23T15:00:58.037Z,98520
2015-02-23T15:01:09.987Z,98531
2015-02-23T15:01:22.025Z,98520
2015-02-23T15:01:34.041Z,98522
2015-02-23T15:01:46.071Z,98517
2015-02-23T15:01:58.076Z,98519
2015-02-23T15:02:16.739Z,98511
2015-02-23T15:02:28.736Z,98539
2015-02-23T15:02:40.831Z,98516
2015-02-23T15:02:52.944Z,98531
2015-02-23T15:03:04.989Z,98528
2015-02-23T15:03:23.617Z,98531
2015-02-23T15:03:35.703Z,98522
2015-02-23T15:04:01.042Z,98522
2015-02-23T15:04:19.757Z,98531
2015-02-23T15:04:31.822Z,98525
2015-02-23T15:04:43.887Z,98531
2015-02-23T15:05:02.531Z,98525
2015-02-23T15:05:21.257Z,98517
2015-02-23T15:05:33.297Z,98514
2015-02-23T15:05:45.255Z,98519
2015-02-23T15:05:57.359Z,98522
2015-02-23T15:06:09.385Z,98522
2015-02-23T15:06:21.480Z,98528
2015-02-23T15:06:33.545Z,98513
2015-02-23T15:06:45.555Z,98513
2015-02-23T15:06:57.717Z,98519
2015-02-23T15:07:23.030Z,98518
2015-02-23T15:07:35.014Z,98524
2015-02-23T15:07:47.079Z,98524
2015-02-23T15:07:59.097Z,98534
2015-02-23T15:08:11.125Z,98521
2015-02-23T15:08:23.214Z,98534
2015-02-23T15:08:35.345Z,98530
2015-02-23T15:08:47.374Z,98524
2015-02-23T15:08:59.408Z,98527
2015-02-23T15:09:11.510Z,98521
2015-02-23T15:09:30.142Z,98524
2015-02-23T15:09:42.171Z,98521
2015-02-23T15:09:54.269Z,98530
2015-02-23T15:10:13.004Z,98524
2015-02-23T15:10:25.025Z,98518
2015-02-23T15:10:37.131Z,98521
2015-02-23T15:10:49.218Z,98518
2015-02-23T15:11:01.176Z,98518
2015-02-23T15:11:13.204Z,98518
2015-02-23T15:11:25.180Z,98524
2015-02-23T15:11:37.201Z,98518
2015-02-23T15:11:49.294Z,98512
2015-02-23T15:12:01.436Z,98524
2015-02-23T15:12:13.504Z,98515
2015-02-23T15:12:25.570Z,98523
2015-02-23T15:12:37.618Z,98517
2015-02-23T15:12:49.611Z,98508
2015-02-23T15:13:01.631Z,98508
2015-02-23T15:13:13.669Z,98513
2015-02-23T15:13:25.721Z,98512
2015-02-23T15:13:44.356Z,98506
2015-02-23T15:13:56.372Z,98514
2015-02-23T15:14:15.081Z,98511
2015-02-23T15:14:27.112Z,98514
2015-02-23T15:14:39.081Z,98522
2015-02-23T15:14:51.123Z,98522
2015-02-23T15:15:03.091Z,98511
2015-02-23T15:15:21.722Z,98516
2015-02-23T15:15:47.001Z,98514
2015-02-23T15:15:59.087Z,98519
2015-02-23T15:16:17.753Z,98513
2015-02-23T15:16:36.358Z,98510
2015-02-23T15:16:48.446Z,98515
2015-02-23T15:17:00.501Z,98512
2015-02-23T15:17:12.547Z,98506
2015-02-23T15:17:31.220Z,98520
2015-02-23T15:17:43.243Z,98520
2015-02-23T15:17:55.285Z,98529
2015-02-23T15:18:13.934Z,98520
2015-02-23T15:18:26.030Z,98520
2015-02-23T15:18:44.691Z,98517
2015-02-23T15:19:03.378Z,98513
2015-02-23T15:19:15.444Z,98510
2015-02-23T15:19:27.448Z,98510
2015-02-23T15:19:39.406Z,98507
2015-02-23T15:19:51.410Z,98507
2015-02-23T15:20:03.467Z,98507
2015-02-23T15:20:15.450Z,98509
2015-02-23T15:20:27.446Z,98521
2015-02-23T15:20:39.441Z,98515
2015-02-23T15:20:58.110Z,98498
2015-02-23T15:21:16.784Z,98506
2015-02-23T15:21:28.737Z,98512
2015-02-23T15:21:47.340Z,98515
2015-02-23T15:22:05.953Z,98509
2015-02-23T15:22:18.039Z,98518
2015-02-23T15:22:30.003Z,98506
2015-02-23T15:22:41.961Z,98506
2015-02-23T15:22:53.994Z,98512
2015-02-23T15:23:06.082Z,98506
2015-02-23T15:23:18.053Z,98506
2015-02-23T15:23:30.134Z,98517
2015-02-23T15:23:48.812Z,98512
2015-02-23T15:24:07.498Z,98509
2015-02-23T15:24:26.110Z,98512
2015-02-23T15:24:38.161Z,98518
2015-02-23T15:24:56.803Z,98520
2015-02-23T15:25:08.834Z,98515
2015-02-23T15:25:20.867Z,98521
2015-02-23T15:25:39.543Z,98524
2015-02-23T15:25:58.162Z,98521
2015-02-23T15:26:16.741Z,98507
2015-02-23T15:26:28.770Z,98516
2015-02-23T15:26:40.765Z,98507
2015-02-23T15:26:52.700Z,98519
2015-02-23T15:27:04.800Z,98516
2015-02-23T15:27:16.782Z,98507
2015-02-23T15:27:35.517Z,98513
2015-02-23T15:27:47.579Z,98513
2015-02-23T15:27:59.656Z,98516
2015-02-23T15:28:11.745Z,98505
2015-02-23T15:28:23.855Z,98516
2015-02-23T15:28:35.827Z,98508
2015-02-23T15:28:47.876Z,98520
2015-02-23T15:28:59.917Z,98514
2015-02-23T15:29:11.970Z,98517
2015-02-23T15:29:24.016Z,98511
2015-02-23T15:29:36.063Z,98508
2015-02-23T15:29:54.793Z,98514
2015-02-23T15:30:06.761Z,98515
2015-02-23T15:30:18.771Z,98509
2015-02-23T15:30:30.821Z,98518
2015-02-23T15:30:42.901Z,98515
2015-02-23T15:30:54.853Z,98509
2015-02-23T15:31:14.064Z,98515
2015-02-23T15:31:26.918Z,98512
2015-02-23T15:31:45.535Z,98512
2015-02-23T15:31:57.545Z,98507
2015-02-23T15:32:09.593Z,98510
2015-02-23T15:32:21.759Z,98510
2015-02-23T15:32:34.390Z,98501
2015-02-23T15:32:46.447Z,98510
2015-02-23T15:32:58.403Z,98510
2015-02-23T15:33:10.406Z,98504
2015-02-23T15:33:29.091Z,98507
2015-02-23T15:33:41.273Z,98510
2015-02-23T15:33:53.374Z,98505
2015-02-23T15:34:05.940Z,98522
2015-02-23T15:34:24.700Z,98511
2015-02-23T15:34:36.850Z,98511
2015-02-23T15:34:49.500Z,98508
2015-02-23T15:35:01.583Z,98502
2015-02-23T15:35:20.267Z,98511
2015-02-23T15:35:32.372Z,98511
2015-02-23T15:35:44.382Z,98514
2015-02-23T15:35:56.507Z,98514
2015-02-23T15:36:08.600Z,98511
2015-02-23T15:36:21.320Z,98514
2015-02-23T15:36:33.499Z,98514
2015-02-23T15:36:52.185Z,98520
2015-02-23T15:37:10.838Z,98511
2015-02-23T15:37:22.943Z,98497
2015-02-23T15:37:41.714Z,98517
2015-02-23T15:37:53.779Z,98517
2015-02-23T15:38:19.043Z,98505
2015-02-23T15:38:37.748Z,98500
2015-02-23T15:38:49.900Z,98503
2015-02-23T15:39:08.551Z,98514
2015-02-23T15:39:21.179Z,98517
2015-02-23T15:39:33.237Z,98508
2015-02-23T15:39:45.484Z,98500
2015-02-23T15:40:04.223Z,98500
2015-02-23T15:40:16.840Z,98497
2015-02-23T15:40:28.878Z,98503
2015-02-23T15:40:40.930Z,98508
2015-02-23T15:40:53.177Z,98506
2015-02-23T15:41:05.318Z,98500
2015-02-23T15:41:17.807Z,98506
2015-02-23T15:41:29.832Z,98494
2015-02-23T15:41:42.564Z,98506
2015-02-23T15:41:54.641Z,98506
2015-02-23T15:42:06.744Z,98500
2015-02-23T15:42:25.428Z,98500
2015-02-23T15:42:37.441Z,98503
2015-02-23T15:42:49.465Z,98503
2015-02-23T15:43:08.106Z,98494
2015-02-23T15:43:26.810Z,98500
2015-02-23T15:43:38.911Z,98503
2015-02-23T15:43:51.038Z,98503
2015-02-23T15:44:03.072Z,98500
2015-02-23T15:44:15.184Z,98503
2015-02-23T15:44:33.904Z,98503
2015-02-23T15:44:46.027Z,98494
2015-02-23T15:45:04.734Z,98505
2015-02-23T15:45:16.824Z,98499
2015-02-23T15:45:28.964Z,98505
2015-02-23T15:45:40.937Z,98499